sensor_id;sensor_type;location;lat;lon;timestamp;P1;durP1;ratioP1;P2;durP2;ratioP2
41829;SDS011;38614;43.472;23.936;2022-11-15T00:00:09;13.98;;;6.53;;
41829;SDS011;38614;43.472;23.936;2022-11-15T00:03:16;11.70;;;6.22;;
41829;SDS011;38614;43.472;23.936;2022-11-15T00:06:24;14.80;;;6.65;;
41829;SDS011;38614;43.472;23.936;2022-11-15T00:09:30;9.63;;;5.43;;
41829;SDS011;38614;43.472;23.936;2022-11-15T00:12:36;11.73;;;6.22;;
41829;SDS011;38614;43.472;23.936;2022-11-15T00:15:42;10.43;;;5.20;;
41829;SDS011;38614;43.472;23.936;2022-11-15T00:18:48;10.27;;;6.28;;
41829;SDS011;38614;43.472;23.936;2022-11-15T00:21:55;9.60;;;5.22;;
41829;SDS011;38614;43.472;23.936;2022-11-15T00:25:01;9.02;;;5.07;;
41829;SDS011;38614;43.472;23.936;2022-11-15T00:28:08;7.72;;;4.32;;
41829;SDS011;38614;43.472;23.936;2022-11-15T00:31:15;6.32;;;4.57;;
41829;SDS011;38614;43.472;23.936;2022-11-15T00:34:21;8.32;;;4.57;;
41829;SDS011;38614;43.472;23.936;2022-11-15T00:37:27;10.57;;;7.13;;
41829;SDS011;38614;43.472;23.936;2022-11-15T00:40:33;8.73;;;5.45;;
41829;SDS011;38614;43.472;23.936;2022-11-15T00:43:39;10.90;;;5.78;;
41829;SDS011;38614;43.472;23.936;2022-11-15T00:46:47;15.05;;;7.47;;
41829;SDS011;38614;43.472;23.936;2022-11-15T00:49:53;11.55;;;6.57;;
41829;SDS011;38614;43.472;23.936;2022-11-15T00:53:00;11.65;;;6.57;;
41829;SDS011;38614;43.472;23.936;2022-11-15T00:56:06;13.15;;;6.53;;
41829;SDS011;38614;43.472;23.936;2022-11-15T00:59:15;8.48;;;5.55;;
41829;SDS011;38614;43.472;23.936;2022-11-15T01:02:21;10.80;;;6.18;;
41829;SDS011;38614;43.472;23.936;2022-11-15T01:05:27;7.25;;;4.80;;
41829;SDS011;38614;43.472;23.936;2022-11-15T01:08:38;9.02;;;4.90;;
41829;SDS011;38614;43.472;23.936;2022-11-15T01:11:47;10.45;;;5.80;;
41829;SDS011;38614;43.472;23.936;2022-11-15T01:14:53;10.15;;;6.70;;
41829;SDS011;38614;43.472;23.936;2022-11-15T01:17:59;11.50;;;5.88;;
41829;SDS011;38614;43.472;23.936;2022-11-15T01:21:10;9.80;;;5.30;;
41829;SDS011;38614;43.472;23.936;2022-11-15T01:24:22;9.02;;;5.45;;
41829;SDS011;38614;43.472;23.936;2022-11-15T01:27:28;11.90;;;5.97;;
41829;SDS011;38614;43.472;23.936;2022-11-15T01:30:35;9.85;;;5.43;;
41829;SDS011;38614;43.472;23.936;2022-11-15T01:33:41;13.38;;;6.22;;
41829;SDS011;38614;43.472;23.936;2022-11-15T01:36:48;9.93;;;6.60;;
41829;SDS011;38614;43.472;23.936;2022-11-15T01:39:54;23.80;;;12.45;;
41829;SDS011;38614;43.472;23.936;2022-11-15T01:43:18;18.45;;;12.18;;
41829;SDS011;38614;43.472;23.936;2022-11-15T01:46:31;25.38;;;14.57;;
41829;SDS011;38614;43.472;23.936;2022-11-15T01:49:46;24.00;;;14.77;;
41829;SDS011;38614;43.472;23.936;2022-11-15T01:53:07;27.92;;;15.52;;
41829;SDS011;38614;43.472;23.936;2022-11-15T01:56:20;22.33;;;13.13;;
41829;SDS011;38614;43.472;23.936;2022-11-15T01:59:29;14.23;;;9.07;;
41829;SDS011;38614;43.472;23.936;2022-11-15T02:02:36;18.58;;;9.45;;
41829;SDS011;38614;43.472;23.936;2022-11-15T02:05:43;21.15;;;7.22;;
41829;SDS011;38614;43.472;23.936;2022-11-15T02:08:50;16.08;;;7.22;;
41829;SDS011;38614;43.472;23.936;2022-11-15T02:11:57;9.15;;;5.25;;
41829;SDS011;38614;43.472;23.936;2022-11-15T02:15:04;10.68;;;6.32;;
41829;SDS011;38614;43.472;23.936;2022-11-15T02:18:19;12.40;;;5.00;;
41829;SDS011;38614;43.472;23.936;2022-11-15T02:38:24;11.93;;;5.43;;
41829;SDS011;38614;43.472;23.936;2022-11-15T02:44:52;9.82;;;5.57;;
41829;SDS011;38614;43.472;23.936;2022-11-15T02:48:03;17.98;;;8.85;;
41829;SDS011;38614;43.472;23.936;2022-11-15T02:51:11;12.25;;;7.55;;
41829;SDS011;38614;43.472;23.936;2022-11-15T02:54:21;11.45;;;6.53;;
41829;SDS011;38614;43.472;23.936;2022-11-15T03:17:28;15.90;;;8.63;;
41829;SDS011;38614;43.472;23.936;2022-11-15T03:20:47;16.25;;;9.88;;
41829;SDS011;38614;43.472;23.936;2022-11-15T03:23:54;15.38;;;8.10;;
41829;SDS011;38614;43.472;23.936;2022-11-15T03:27:02;14.82;;;8.23;;
41829;SDS011;38614;43.472;23.936;2022-11-15T03:30:12;14.38;;;6.70;;
41829;SDS011;38614;43.472;23.936;2022-11-15T03:33:19;16.10;;;8.13;;
41829;SDS011;38614;43.472;23.936;2022-11-15T03:36:27;15.00;;;7.70;;
41829;SDS011;38614;43.472;23.936;2022-11-15T03:39:36;12.98;;;7.53;;
41829;SDS011;38614;43.472;23.936;2022-11-15T03:46:05;18.50;;;12.23;;
41829;SDS011;38614;43.472;23.936;2022-11-15T03:49:19;40.95;;;27.33;;
41829;SDS011;38614;43.472;23.936;2022-11-15T03:52:33;12.82;;;7.82;;
41829;SDS011;38614;43.472;23.936;2022-11-15T03:55:40;19.92;;;12.50;;
41829;SDS011;38614;43.472;23.936;2022-11-15T03:58:46;13.85;;;8.73;;
41829;SDS011;38614;43.472;23.936;2022-11-15T04:01:53;14.40;;;6.88;;
41829;SDS011;38614;43.472;23.936;2022-11-15T04:05:17;13.68;;;6.88;;
41829;SDS011;38614;43.472;23.936;2022-11-15T04:08:24;10.57;;;6.25;;
41829;SDS011;38614;43.472;23.936;2022-11-15T04:11:30;11.68;;;5.85;;
41829;SDS011;38614;43.472;23.936;2022-11-15T04:14:36;14.48;;;6.38;;
41829;SDS011;38614;43.472;23.936;2022-11-15T04:17:44;11.90;;;5.38;;
41829;SDS011;38614;43.472;23.936;2022-11-15T04:20:52;14.50;;;5.85;;
41829;SDS011;38614;43.472;23.936;2022-11-15T04:24:17;13.75;;;5.60;;
41829;SDS011;38614;43.472;23.936;2022-11-15T04:27:23;12.68;;;5.82;;
41829;SDS011;38614;43.472;23.936;2022-11-15T04:30:29;15.23;;;7.30;;
41829;SDS011;38614;43.472;23.936;2022-11-15T04:33:36;11.52;;;6.93;;
41829;SDS011;38614;43.472;23.936;2022-11-15T04:36:42;12.10;;;6.75;;
41829;SDS011;38614;43.472;23.936;2022-11-15T04:40:07;9.55;;;5.68;;
41829;SDS011;38614;43.472;23.936;2022-11-15T04:43:13;7.88;;;4.75;;
41829;SDS011;38614;43.472;23.936;2022-11-15T04:46:19;10.02;;;5.05;;
41829;SDS011;38614;43.472;23.936;2022-11-15T04:49:29;7.93;;;4.63;;
41829;SDS011;38614;43.472;23.936;2022-11-15T04:52:35;8.07;;;5.10;;
41829;SDS011;38614;43.472;23.936;2022-11-15T04:55:44;6.35;;;3.97;;
41829;SDS011;38614;43.472;23.936;2022-11-15T04:58:51;9.90;;;4.45;;
41829;SDS011;38614;43.472;23.936;2022-11-15T05:01:58;7.78;;;4.30;;
41829;SDS011;38614;43.472;23.936;2022-11-15T05:05:04;7.90;;;4.93;;
41829;SDS011;38614;43.472;23.936;2022-11-15T05:08:11;13.00;;;6.30;;
41829;SDS011;38614;43.472;23.936;2022-11-15T05:11:19;7.65;;;4.68;;
41829;SDS011;38614;43.472;23.936;2022-11-15T05:14:28;6.95;;;4.95;;
41829;SDS011;38614;43.472;23.936;2022-11-15T05:17:35;7.93;;;4.90;;
41829;SDS011;38614;43.472;23.936;2022-11-15T05:20:41;11.00;;;6.35;;
41829;SDS011;38614;43.472;23.936;2022-11-15T05:23:47;9.15;;;5.57;;
41829;SDS011;38614;43.472;23.936;2022-11-15T05:26:54;10.23;;;4.82;;
41829;SDS011;38614;43.472;23.936;2022-11-15T05:30:00;11.70;;;6.18;;
41829;SDS011;38614;43.472;23.936;2022-11-15T05:33:06;9.85;;;5.88;;
41829;SDS011;38614;43.472;23.936;2022-11-15T05:36:17;10.75;;;6.60;;
41829;SDS011;38614;43.472;23.936;2022-11-15T05:39:31;10.23;;;6.50;;
41829;SDS011;38614;43.472;23.936;2022-11-15T05:42:40;8.15;;;5.40;;
41829;SDS011;38614;43.472;23.936;2022-11-15T05:45:46;10.18;;;5.53;;
41829;SDS011;38614;43.472;23.936;2022-11-15T05:48:52;10.75;;;5.03;;
41829;SDS011;38614;43.472;23.936;2022-11-15T05:52:02;11.23;;;4.68;;
41829;SDS011;38614;43.472;23.936;2022-11-15T05:55:12;10.60;;;5.30;;
41829;SDS011;38614;43.472;23.936;2022-11-15T05:58:19;6.65;;;4.97;;
41829;SDS011;38614;43.472;23.936;2022-11-15T06:01:27;8.23;;;4.70;;
41829;SDS011;38614;43.472;23.936;2022-11-15T06:04:33;8.15;;;3.92;;
41829;SDS011;38614;43.472;23.936;2022-11-15T06:07:39;9.35;;;4.07;;
41829;SDS011;38614;43.472;23.936;2022-11-15T06:10:45;6.55;;;4.07;;
41829;SDS011;38614;43.472;23.936;2022-11-15T06:13:52;6.47;;;4.22;;
41829;SDS011;38614;43.472;23.936;2022-11-15T06:17:00;14.48;;;5.15;;
41829;SDS011;38614;43.472;23.936;2022-11-15T06:20:12;10.13;;;4.13;;
41829;SDS011;38614;43.472;23.936;2022-11-15T06:23:19;14.05;;;6.78;;
41829;SDS011;38614;43.472;23.936;2022-11-15T06:26:25;11.30;;;5.30;;
41829;SDS011;38614;43.472;23.936;2022-11-15T06:29:31;9.23;;;6.95;;
41829;SDS011;38614;43.472;23.936;2022-11-15T06:32:37;10.10;;;6.30;;
41829;SDS011;38614;43.472;23.936;2022-11-15T06:35:43;16.65;;;7.35;;
41829;SDS011;38614;43.472;23.936;2022-11-15T06:38:50;11.68;;;7.32;;
41829;SDS011;38614;43.472;23.936;2022-11-15T06:41:56;11.93;;;7.22;;
41829;SDS011;38614;43.472;23.936;2022-11-15T06:45:03;12.40;;;7.75;;
41829;SDS011;38614;43.472;23.936;2022-11-15T06:48:09;13.43;;;7.80;;
41829;SDS011;38614;43.472;23.936;2022-11-15T06:51:15;15.93;;;9.25;;
41829;SDS011;38614;43.472;23.936;2022-11-15T06:54:21;18.15;;;11.30;;
41829;SDS011;38614;43.472;23.936;2022-11-15T06:57:28;21.00;;;12.07;;
41829;SDS011;38614;43.472;23.936;2022-11-15T07:00:34;15.30;;;9.30;;
41829;SDS011;38614;43.472;23.936;2022-11-15T07:03:45;12.20;;;7.63;;
41829;SDS011;38614;43.472;23.936;2022-11-15T07:07:02;13.98;;;9.05;;
41829;SDS011;38614;43.472;23.936;2022-11-15T07:10:23;15.48;;;9.40;;
41829;SDS011;38614;43.472;23.936;2022-11-15T07:13:31;19.15;;;10.32;;
41829;SDS011;38614;43.472;23.936;2022-11-15T07:16:41;21.33;;;11.45;;
41829;SDS011;38614;43.472;23.936;2022-11-15T07:19:47;25.33;;;12.73;;
41829;SDS011;38614;43.472;23.936;2022-11-15T07:23:03;26.10;;;12.45;;
41829;SDS011;38614;43.472;23.936;2022-11-15T07:26:10;22.25;;;12.32;;
41829;SDS011;38614;43.472;23.936;2022-11-15T07:29:17;23.35;;;12.85;;
41829;SDS011;38614;43.472;23.936;2022-11-15T07:32:23;21.20;;;12.45;;
41829;SDS011;38614;43.472;23.936;2022-11-15T07:35:29;29.40;;;10.88;;
41829;SDS011;38614;43.472;23.936;2022-11-15T07:38:35;18.20;;;10.35;;
41829;SDS011;38614;43.472;23.936;2022-11-15T07:41:50;20.13;;;11.23;;
41829;SDS011;38614;43.472;23.936;2022-11-15T07:45:16;18.15;;;10.50;;
41829;SDS011;38614;43.472;23.936;2022-11-15T07:48:22;15.98;;;9.38;;
41829;SDS011;38614;43.472;23.936;2022-11-15T07:51:28;17.40;;;10.18;;
41829;SDS011;38614;43.472;23.936;2022-11-15T07:54:35;15.93;;;9.52;;
41829;SDS011;38614;43.472;23.936;2022-11-15T07:57:41;18.17;;;8.90;;
41829;SDS011;38614;43.472;23.936;2022-11-15T08:00:47;16.42;;;8.95;;
41829;SDS011;38614;43.472;23.936;2022-11-15T08:03:56;15.27;;;6.93;;
41829;SDS011;38614;43.472;23.936;2022-11-15T08:07:02;12.10;;;6.88;;
41829;SDS011;38614;43.472;23.936;2022-11-15T08:10:08;17.50;;;6.50;;
41829;SDS011;38614;43.472;23.936;2022-11-15T08:13:14;15.38;;;7.50;;
41829;SDS011;38614;43.472;23.936;2022-11-15T08:16:20;13.40;;;6.85;;
41829;SDS011;38614;43.472;23.936;2022-11-15T08:19:27;9.60;;;6.47;;
41829;SDS011;38614;43.472;23.936;2022-11-15T08:22:33;17.85;;;10.63;;
41829;SDS011;38614;43.472;23.936;2022-11-15T08:25:39;14.02;;;8.73;;
41829;SDS011;38614;43.472;23.936;2022-11-15T08:28:45;17.33;;;10.23;;
41829;SDS011;38614;43.472;23.936;2022-11-15T08:31:54;16.92;;;9.18;;
41829;SDS011;38614;43.472;23.936;2022-11-15T08:35:00;17.05;;;10.68;;
41829;SDS011;38614;43.472;23.936;2022-11-15T08:38:06;17.55;;;7.68;;
41829;SDS011;38614;43.472;23.936;2022-11-15T08:41:18;11.68;;;6.65;;
41829;SDS011;38614;43.472;23.936;2022-11-15T08:44:41;15.75;;;6.70;;
41829;SDS011;38614;43.472;23.936;2022-11-15T08:47:47;12.45;;;6.20;;
41829;SDS011;38614;43.472;23.936;2022-11-15T08:50:58;14.30;;;8.40;;
41829;SDS011;38614;43.472;23.936;2022-11-15T08:54:04;17.15;;;9.13;;
41829;SDS011;38614;43.472;23.936;2022-11-15T08:57:11;15.15;;;6.88;;
41829;SDS011;38614;43.472;23.936;2022-11-15T09:00:17;9.90;;;6.53;;
41829;SDS011;38614;43.472;23.936;2022-11-15T09:03:25;15.13;;;8.38;;
41829;SDS011;38614;43.472;23.936;2022-11-15T09:06:31;12.90;;;7.28;;
41829;SDS011;38614;43.472;23.936;2022-11-15T09:09:37;15.32;;;7.93;;
41829;SDS011;38614;43.472;23.936;2022-11-15T09:12:44;18.50;;;8.85;;
41829;SDS011;38614;43.472;23.936;2022-11-15T09:15:50;9.80;;;6.30;;
41829;SDS011;38614;43.472;23.936;2022-11-15T09:18:57;8.75;;;5.55;;
41829;SDS011;38614;43.472;23.936;2022-11-15T09:22:05;6.05;;;4.15;;
41829;SDS011;38614;43.472;23.936;2022-11-15T09:25:13;8.15;;;3.70;;
41829;SDS011;38614;43.472;23.936;2022-11-15T09:28:19;6.15;;;3.38;;
41829;SDS011;38614;43.472;23.936;2022-11-15T09:31:43;6.65;;;3.13;;
41829;SDS011;38614;43.472;23.936;2022-11-15T09:34:49;5.43;;;3.33;;
41829;SDS011;38614;43.472;23.936;2022-11-15T09:37:57;6.05;;;3.83;;
41829;SDS011;38614;43.472;23.936;2022-11-15T09:44:32;5.28;;;3.97;;
41829;SDS011;38614;43.472;23.936;2022-11-15T09:51:18;12.13;;;7.00;;
41829;SDS011;38614;43.472;23.936;2022-11-15T09:57:39;10.77;;;5.32;;
41829;SDS011;38614;43.472;23.936;2022-11-15T10:00:44;10.10;;;4.93;;
41829;SDS011;38614;43.472;23.936;2022-11-15T10:03:37;13.98;;;4.45;;
41829;SDS011;38614;43.472;23.936;2022-11-15T10:06:29;8.38;;;4.40;;
41829;SDS011;38614;43.472;23.936;2022-11-15T10:09:24;8.75;;;4.45;;
41829;SDS011;38614;43.472;23.936;2022-11-15T10:12:17;11.80;;;8.25;;
41829;SDS011;38614;43.472;23.936;2022-11-15T10:15:08;18.02;;;7.03;;
41829;SDS011;38614;43.472;23.936;2022-11-15T10:21:40;8.20;;;4.50;;
41829;SDS011;38614;43.472;23.936;2022-11-15T10:24:34;6.55;;;4.18;;
41829;SDS011;38614;43.472;23.936;2022-11-15T10:27:25;7.15;;;4.25;;
41829;SDS011;38614;43.472;23.936;2022-11-15T10:30:17;17.95;;;6.75;;
41829;SDS011;38614;43.472;23.936;2022-11-15T10:36:26;9.77;;;5.80;;
41829;SDS011;38614;43.472;23.936;2022-11-15T10:39:13;11.50;;;5.88;;
41829;SDS011;38614;43.472;23.936;2022-11-15T10:42:26;12.13;;;6.82;;
41829;SDS011;38614;43.472;23.936;2022-11-15T10:45:49;9.80;;;5.80;;
41829;SDS011;38614;43.472;23.936;2022-11-15T10:48:30;24.08;;;11.63;;
41829;SDS011;38614;43.472;23.936;2022-11-15T10:51:22;13.70;;;6.35;;
41829;SDS011;38614;43.472;23.936;2022-11-15T10:54:34;10.20;;;6.13;;
41829;SDS011;38614;43.472;23.936;2022-11-15T10:57:29;12.10;;;6.47;;
41829;SDS011;38614;43.472;23.936;2022-11-15T11:03:25;8.52;;;4.72;;
41829;SDS011;38614;43.472;23.936;2022-11-15T11:06:22;5.03;;;3.50;;
41829;SDS011;38614;43.472;23.936;2022-11-15T11:09:18;6.22;;;3.85;;
41829;SDS011;38614;43.472;23.936;2022-11-15T11:12:11;9.82;;;3.75;;
41829;SDS011;38614;43.472;23.936;2022-11-15T11:15:00;10.02;;;5.18;;
41829;SDS011;38614;43.472;23.936;2022-11-15T11:18:07;5.88;;;3.53;;
41829;SDS011;38614;43.472;23.936;2022-11-15T11:21:10;4.78;;;2.92;;
41829;SDS011;38614;43.472;23.936;2022-11-15T11:24:05;4.43;;;3.50;;
41829;SDS011;38614;43.472;23.936;2022-11-15T11:30:20;8.40;;;3.70;;
41829;SDS011;38614;43.472;23.936;2022-11-15T11:52:02;10.05;;;4.80;;
41829;SDS011;38614;43.472;23.936;2022-11-15T12:01:25;9.75;;;4.38;;
41829;SDS011;38614;43.472;23.936;2022-11-15T12:04:21;9.93;;;4.18;;
41829;SDS011;38614;43.472;23.936;2022-11-15T12:07:24;9.48;;;5.40;;
41829;SDS011;38614;43.472;23.936;2022-11-15T12:10:24;9.35;;;6.03;;
41829;SDS011;38614;43.472;23.936;2022-11-15T12:13:19;7.35;;;4.10;;
41829;SDS011;38614;43.472;23.936;2022-11-15T12:16:13;11.45;;;5.63;;
41829;SDS011;38614;43.472;23.936;2022-11-15T12:19:09;11.95;;;6.57;;
41829;SDS011;38614;43.472;23.936;2022-11-15T12:22:02;17.90;;;14.48;;
41829;SDS011;38614;43.472;23.936;2022-11-15T12:30:43;9.65;;;4.43;;
41829;SDS011;38614;43.472;23.936;2022-11-15T12:33:40;6.72;;;4.32;;
41829;SDS011;38614;43.472;23.936;2022-11-15T12:36:32;12.90;;;6.75;;
41829;SDS011;38614;43.472;23.936;2022-11-15T12:40:02;8.82;;;5.00;;
41829;SDS011;38614;43.472;23.936;2022-11-15T12:43:04;10.48;;;6.10;;
41829;SDS011;38614;43.472;23.936;2022-11-15T12:46:14;13.15;;;5.35;;
41829;SDS011;38614;43.472;23.936;2022-11-15T12:49:09;14.68;;;6.82;;
41829;SDS011;38614;43.472;23.936;2022-11-15T12:52:11;8.18;;;5.53;;
41829;SDS011;38614;43.472;23.936;2022-11-15T12:54:59;9.25;;;5.43;;
41829;SDS011;38614;43.472;23.936;2022-11-15T12:57:49;8.45;;;5.13;;
41829;SDS011;38614;43.472;23.936;2022-11-15T13:00:37;10.85;;;5.22;;
41829;SDS011;38614;43.472;23.936;2022-11-15T13:03:25;9.90;;;6.13;;
41829;SDS011;38614;43.472;23.936;2022-11-15T13:06:33;10.18;;;6.57;;
41829;SDS011;38614;43.472;23.936;2022-11-15T13:21:26;7.80;;;5.55;;
41829;SDS011;38614;43.472;23.936;2022-11-15T13:24:32;7.97;;;4.93;;
41829;SDS011;38614;43.472;23.936;2022-11-15T13:27:20;10.35;;;5.63;;
41829;SDS011;38614;43.472;23.936;2022-11-15T13:30:16;10.50;;;6.80;;
41829;SDS011;38614;43.472;23.936;2022-11-15T13:33:09;8.73;;;5.28;;
41829;SDS011;38614;43.472;23.936;2022-11-15T13:39:30;7.60;;;5.03;;
41829;SDS011;38614;43.472;23.936;2022-11-15T13:42:23;11.05;;;6.03;;
41829;SDS011;38614;43.472;23.936;2022-11-15T13:45:17;22.55;;;9.23;;
41829;SDS011;38614;43.472;23.936;2022-11-15T13:48:07;11.55;;;7.10;;
41829;SDS011;38614;43.472;23.936;2022-11-15T13:50:55;11.95;;;6.50;;
41829;SDS011;38614;43.472;23.936;2022-11-15T13:53:46;13.73;;;7.47;;
41829;SDS011;38614;43.472;23.936;2022-11-15T13:56:38;28.25;;;13.48;;
41829;SDS011;38614;43.472;23.936;2022-11-15T13:59:30;18.15;;;8.52;;
41829;SDS011;38614;43.472;23.936;2022-11-15T14:02:26;17.90;;;7.43;;
41829;SDS011;38614;43.472;23.936;2022-11-15T14:05:18;16.63;;;9.20;;
41829;SDS011;38614;43.472;23.936;2022-11-15T14:11:16;14.80;;;9.85;;
41829;SDS011;38614;43.472;23.936;2022-11-15T14:17:00;15.63;;;9.23;;
41829;SDS011;38614;43.472;23.936;2022-11-15T14:19:48;23.25;;;10.55;;
41829;SDS011;38614;43.472;23.936;2022-11-15T14:22:35;18.58;;;9.88;;
41829;SDS011;38614;43.472;23.936;2022-11-15T14:25:25;15.73;;;9.70;;
41829;SDS011;38614;43.472;23.936;2022-11-15T14:28:16;22.38;;;10.02;;
41829;SDS011;38614;43.472;23.936;2022-11-15T14:31:18;21.15;;;9.48;;
41829;SDS011;38614;43.472;23.936;2022-11-15T14:34:08;17.20;;;9.75;;
41829;SDS011;38614;43.472;23.936;2022-11-15T14:36:56;14.95;;;8.07;;
41829;SDS011;38614;43.472;23.936;2022-11-15T14:39:43;16.75;;;8.25;;
41829;SDS011;38614;43.472;23.936;2022-11-15T14:42:31;16.20;;;8.40;;
41829;SDS011;38614;43.472;23.936;2022-11-15T14:45:20;15.88;;;8.70;;
41829;SDS011;38614;43.472;23.936;2022-11-15T14:48:08;15.25;;;8.80;;
41829;SDS011;38614;43.472;23.936;2022-11-15T14:50:58;12.27;;;7.13;;
41829;SDS011;38614;43.472;23.936;2022-11-15T14:53:49;13.43;;;7.30;;
41829;SDS011;38614;43.472;23.936;2022-11-15T14:56:37;15.55;;;6.38;;
41829;SDS011;38614;43.472;23.936;2022-11-15T14:59:29;16.33;;;8.90;;
41829;SDS011;38614;43.472;23.936;2022-11-15T15:02:21;17.20;;;9.02;;
41829;SDS011;38614;43.472;23.936;2022-11-15T15:05:15;26.88;;;11.05;;
41829;SDS011;38614;43.472;23.936;2022-11-15T15:08:08;42.50;;;22.95;;
41829;SDS011;38614;43.472;23.936;2022-11-15T15:10:59;22.20;;;12.45;;
41829;SDS011;38614;43.472;23.936;2022-11-15T15:13:46;20.70;;;11.10;;
41829;SDS011;38614;43.472;23.936;2022-11-15T15:16:34;20.40;;;12.27;;
41829;SDS011;38614;43.472;23.936;2022-11-15T15:19:25;20.90;;;10.55;;
41829;SDS011;38614;43.472;23.936;2022-11-15T15:22:14;32.58;;;12.68;;
41829;SDS011;38614;43.472;23.936;2022-11-15T15:25:26;27.05;;;14.80;;
41829;SDS011;38614;43.472;23.936;2022-11-15T15:28:15;33.70;;;16.48;;
41829;SDS011;38614;43.472;23.936;2022-11-15T15:31:03;28.15;;;15.48;;
41829;SDS011;38614;43.472;23.936;2022-11-15T15:33:51;26.63;;;14.77;;
41829;SDS011;38614;43.472;23.936;2022-11-15T15:36:39;29.10;;;15.48;;
41829;SDS011;38614;43.472;23.936;2022-11-15T15:39:26;30.85;;;16.63;;
41829;SDS011;38614;43.472;23.936;2022-11-15T15:42:14;23.17;;;12.40;;
41829;SDS011;38614;43.472;23.936;2022-11-15T15:45:02;20.58;;;11.63;;
41829;SDS011;38614;43.472;23.936;2022-11-15T15:47:55;30.15;;;16.63;;
41829;SDS011;38614;43.472;23.936;2022-11-15T15:50:43;27.90;;;14.27;;
41829;SDS011;38614;43.472;23.936;2022-11-15T15:53:32;24.33;;;13.73;;
41829;SDS011;38614;43.472;23.936;2022-11-15T15:56:20;29.75;;;14.18;;
41829;SDS011;38614;43.472;23.936;2022-11-15T15:59:07;28.95;;;16.02;;
41829;SDS011;38614;43.472;23.936;2022-11-15T16:01:55;33.78;;;14.45;;
41829;SDS011;38614;43.472;23.936;2022-11-15T16:04:43;25.77;;;13.48;;
41829;SDS011;38614;43.472;23.936;2022-11-15T16:07:31;18.73;;;11.18;;
41829;SDS011;38614;43.472;23.936;2022-11-15T16:13:06;27.38;;;14.07;;
41829;SDS011;38614;43.472;23.936;2022-11-15T16:15:54;39.22;;;20.20;;
41829;SDS011;38614;43.472;23.936;2022-11-15T16:18:42;42.15;;;20.38;;
41829;SDS011;38614;43.472;23.936;2022-11-15T16:21:30;25.02;;;12.75;;
41829;SDS011;38614;43.472;23.936;2022-11-15T16:24:19;16.67;;;9.85;;
41829;SDS011;38614;43.472;23.936;2022-11-15T16:30:07;25.52;;;13.20;;
41829;SDS011;38614;43.472;23.936;2022-11-15T16:33:02;28.67;;;13.48;;
41829;SDS011;38614;43.472;23.936;2022-11-15T16:35:50;30.05;;;16.75;;
41829;SDS011;38614;43.472;23.936;2022-11-15T16:38:40;38.00;;;19.35;;
41829;SDS011;38614;43.472;23.936;2022-11-15T16:41:30;27.65;;;15.05;;
41829;SDS011;38614;43.472;23.936;2022-11-15T16:44:23;21.52;;;12.82;;
41829;SDS011;38614;43.472;23.936;2022-11-15T16:47:31;16.40;;;9.70;;
41829;SDS011;38614;43.472;23.936;2022-11-15T16:50:20;20.40;;;11.00;;
41829;SDS011;38614;43.472;23.936;2022-11-15T16:53:15;20.98;;;10.23;;
41829;SDS011;38614;43.472;23.936;2022-11-15T16:56:04;23.05;;;12.05;;
41829;SDS011;38614;43.472;23.936;2022-11-15T16:59:17;17.73;;;10.57;;
41829;SDS011;38614;43.472;23.936;2022-11-15T17:02:16;21.73;;;13.02;;
41829;SDS011;38614;43.472;23.936;2022-11-15T17:05:06;19.58;;;10.48;;
41829;SDS011;38614;43.472;23.936;2022-11-15T17:08:00;17.35;;;9.93;;
41829;SDS011;38614;43.472;23.936;2022-11-15T17:10:48;15.55;;;9.45;;
41829;SDS011;38614;43.472;23.936;2022-11-15T17:13:39;17.50;;;9.40;;
41829;SDS011;38614;43.472;23.936;2022-11-15T17:16:27;25.58;;;14.27;;
41829;SDS011;38614;43.472;23.936;2022-11-15T17:19:16;22.38;;;12.75;;
41829;SDS011;38614;43.472;23.936;2022-11-15T17:22:05;32.72;;;17.42;;
41829;SDS011;38614;43.472;23.936;2022-11-15T17:24:52;31.50;;;13.65;;
41829;SDS011;38614;43.472;23.936;2022-11-15T17:27:40;20.83;;;10.98;;
41829;SDS011;38614;43.472;23.936;2022-11-15T17:30:28;20.30;;;11.07;;
41829;SDS011;38614;43.472;23.936;2022-11-15T17:33:16;21.70;;;10.52;;
41829;SDS011;38614;43.472;23.936;2022-11-15T17:36:04;22.30;;;12.35;;
41829;SDS011;38614;43.472;23.936;2022-11-15T17:38:53;17.80;;;9.32;;
41829;SDS011;38614;43.472;23.936;2022-11-15T17:41:46;15.35;;;8.82;;
41829;SDS011;38614;43.472;23.936;2022-11-15T17:44:39;15.73;;;9.35;;
41829;SDS011;38614;43.472;23.936;2022-11-15T17:47:26;21.02;;;11.60;;
41829;SDS011;38614;43.472;23.936;2022-11-15T17:50:14;19.13;;;11.05;;
41829;SDS011;38614;43.472;23.936;2022-11-15T17:53:03;23.77;;;13.45;;
41829;SDS011;38614;43.472;23.936;2022-11-15T17:55:52;29.58;;;12.70;;
41829;SDS011;38614;43.472;23.936;2022-11-15T17:58:40;20.08;;;11.60;;
41829;SDS011;38614;43.472;23.936;2022-11-15T18:01:29;17.60;;;10.68;;
41829;SDS011;38614;43.472;23.936;2022-11-15T18:04:18;15.45;;;9.95;;
41829;SDS011;38614;43.472;23.936;2022-11-15T18:07:06;17.45;;;8.85;;
41829;SDS011;38614;43.472;23.936;2022-11-15T18:09:54;15.10;;;9.13;;
41829;SDS011;38614;43.472;23.936;2022-11-15T18:12:44;13.35;;;7.95;;
41829;SDS011;38614;43.472;23.936;2022-11-15T18:15:31;12.40;;;8.43;;
41829;SDS011;38614;43.472;23.936;2022-11-15T18:18:19;19.83;;;9.45;;
41829;SDS011;38614;43.472;23.936;2022-11-15T18:26:51;32.67;;;13.10;;
41829;SDS011;38614;43.472;23.936;2022-11-15T18:29:38;43.65;;;22.00;;
41829;SDS011;38614;43.472;23.936;2022-11-15T18:32:32;25.00;;;12.60;;
41829;SDS011;38614;43.472;23.936;2022-11-15T18:35:20;40.17;;;29.40;;
41829;SDS011;38614;43.472;23.936;2022-11-15T18:38:08;22.58;;;16.52;;
41829;SDS011;38614;43.472;23.936;2022-11-15T18:40:56;26.58;;;16.38;;
41829;SDS011;38614;43.472;23.936;2022-11-15T18:43:46;28.15;;;20.48;;
41829;SDS011;38614;43.472;23.936;2022-11-15T18:46:37;20.73;;;15.43;;
41829;SDS011;38614;43.472;23.936;2022-11-15T18:49:26;20.60;;;12.70;;
41829;SDS011;38614;43.472;23.936;2022-11-15T18:52:14;18.10;;;11.48;;
41829;SDS011;38614;43.472;23.936;2022-11-15T18:55:06;15.68;;;9.45;;
41829;SDS011;38614;43.472;23.936;2022-11-15T18:57:55;18.13;;;11.00;;
41829;SDS011;38614;43.472;23.936;2022-11-15T19:00:48;14.90;;;9.98;;
41829;SDS011;38614;43.472;23.936;2022-11-15T19:03:38;16.05;;;9.93;;
41829;SDS011;38614;43.472;23.936;2022-11-15T19:06:27;14.23;;;8.68;;
41829;SDS011;38614;43.472;23.936;2022-11-15T19:09:19;17.60;;;10.73;;
41829;SDS011;38614;43.472;23.936;2022-11-15T19:12:06;19.98;;;10.48;;
41829;SDS011;38614;43.472;23.936;2022-11-15T19:14:58;18.43;;;11.23;;
41829;SDS011;38614;43.472;23.936;2022-11-15T19:17:45;14.38;;;8.50;;
41829;SDS011;38614;43.472;23.936;2022-11-15T19:20:36;16.30;;;8.35;;
41829;SDS011;38614;43.472;23.936;2022-11-15T19:23:24;13.15;;;9.18;;
41829;SDS011;38614;43.472;23.936;2022-11-15T19:26:13;16.38;;;10.32;;
41829;SDS011;38614;43.472;23.936;2022-11-15T19:29:02;15.82;;;10.07;;
41829;SDS011;38614;43.472;23.936;2022-11-15T19:31:53;14.88;;;10.18;;
41829;SDS011;38614;43.472;23.936;2022-11-15T19:34:41;15.60;;;9.15;;
41829;SDS011;38614;43.472;23.936;2022-11-15T19:37:29;16.17;;;10.40;;
41829;SDS011;38614;43.472;23.936;2022-11-15T19:40:17;20.75;;;11.55;;
41829;SDS011;38614;43.472;23.936;2022-11-15T19:43:05;23.30;;;13.48;;